createdAt,value
2023-02-06T00:02:03.359Z,3.58
2023-02-06T00:06:55.075Z,3.33
2023-02-06T00:11:46.791Z,3.25
2023-02-06T00:16:38.485Z,3.35
2023-02-06T00:21:31.074Z,3.44
2023-02-06T00:26:24.438Z,3.30
2023-02-06T00:31:16.453Z,3.20
2023-02-06T00:36:09.037Z,3.24
2023-02-06T00:41:00.753Z,3.11
2023-02-06T00:45:56.773Z,3.07
2023-02-06T00:50:51.724Z,3.06
2023-02-06T00:55:43.499Z,3.20
2023-02-06T01:00:35.623Z,3.21
2023-02-06T01:05:28.871Z,3.12
2023-02-06T01:10:20.713Z,3.16
2023-02-06T01:15:13.361Z,3.16
2023-02-06T01:20:09.186Z,3.15
2023-02-06T01:25:01.050Z,3.20
2023-02-06T01:29:52.888Z,3.25
2023-02-06T01:34:44.724Z,3.09
2023-02-06T01:39:36.419Z,3.02
2023-02-06T01:44:28.148Z,2.91
2023-02-06T01:49:28.421Z,3.00
2023-02-06T01:54:20.559Z,3.03
2023-02-06T01:59:12.850Z,2.96
2023-02-06T02:04:14.797Z,3.03
2023-02-06T02:09:08.179Z,2.92
2023-02-06T02:14:03.189Z,2.92
2023-02-06T02:19:58.122Z,2.60
2023-02-06T02:25:29.978Z,2.64
2023-02-06T02:31:08.239Z,2.82
2023-02-06T02:36:34.151Z,2.66
2023-02-06T02:41:49.796Z,2.80
2023-02-06T02:46:46.259Z,2.74
2023-02-06T02:51:40.947Z,2.82
2023-02-06T02:56:34.706Z,2.90
2023-02-06T03:01:34.713Z,2.93
2023-02-06T03:06:57.327Z,2.96
2023-02-06T03:12:13.473Z,2.98
2023-02-06T03:17:13.893Z,3.08
2023-02-06T03:22:05.959Z,2.90
2023-02-06T03:27:04.855Z,2.92
2023-02-06T03:32:05.846Z,2.79
2023-02-06T03:36:57.919Z,2.84
2023-02-06T03:41:52.060Z,2.89
2023-02-06T03:46:46.600Z,2.86
2023-02-06T03:51:53.564Z,2.86
2023-02-06T03:56:55.209Z,2.96
2023-02-06T04:02:00.608Z,2.95
2023-02-06T04:06:52.349Z,2.90
2023-02-06T04:11:44.094Z,2.99
2023-02-06T04:16:35.861Z,3.03
2023-02-06T04:21:27.634Z,3.06
2023-02-06T04:26:19.293Z,3.03
2023-02-06T04:31:11.026Z,3.06
2023-02-06T04:36:02.842Z,2.99
2023-02-06T04:40:54.540Z,3.03
2023-02-06T04:45:47.090Z,2.99
2023-02-06T04:50:38.767Z,3.02
2023-02-06T04:55:30.425Z,3.09
2023-02-06T05:05:29.656Z,3.02
2023-02-06T05:10:25.102Z,3.03
2023-02-06T05:25:33.388Z,2.77
2023-02-06T05:30:27.058Z,2.64
2023-02-06T05:40:28.843Z,2.55
2023-02-06T05:50:28.439Z,2.38
2023-02-06T06:00:27.425Z,2.54
2023-02-06T06:05:22.923Z,2.41
2023-02-06T06:10:15.856Z,2.41
2023-02-06T06:15:12.848Z,2.52
2023-02-06T06:25:11.091Z,2.41
2023-02-06T06:45:21.895Z,2.61
2023-02-06T06:55:24.352Z,2.77
2023-02-06T07:00:17.493Z,2.89
2023-02-06T07:05:12.059Z,2.85
2023-02-06T07:20:17.502Z,2.63
2023-02-06T07:25:19.119Z,2.47
2023-02-06T07:30:20.762Z,2.42
2023-02-06T07:35:12.710Z,2.48
2023-02-06T07:40:06.691Z,2.55
2023-02-06T07:45:00.735Z,2.51
2023-02-06T07:49:53.409Z,2.58
2023-02-06T08:15:20.234Z,3.04
2023-02-06T08:50:48.354Z,2.50
2023-02-06T08:55:44.417Z,2.66
2023-02-06T09:21:22.635Z,3.14
2023-02-06T09:26:20.161Z,3.00
2023-02-06T10:48:17.192Z,3.85
2023-02-06T12:58:44.627Z,3.16
2023-02-06T13:14:36.174Z,2.91
2023-02-06T13:19:30.453Z,2.72
2023-02-06T13:34:46.703Z,3.12
2023-02-06T13:39:46.119Z,2.57
2023-02-06T14:13:03.484Z,2.70
2023-02-06T16:38:04.062Z,1.70
2023-02-06T17:09:13.135Z,1.33
2023-02-06T17:14:14.554Z,1.39
2023-02-06T17:34:30.425Z,1.29
2023-02-06T17:44:31.942Z,1.39
2023-02-06T18:09:48.808Z,1.42
2023-02-06T18:19:51.108Z,1.28
2023-02-06T18:24:48.213Z,1.40
2023-02-06T18:29:51.844Z,1.49
2023-02-06T18:34:44.556Z,1.43
2023-02-06T18:39:38.998Z,1.33
2023-02-06T18:44:32.222Z,1.24
2023-02-06T18:49:28.013Z,1.47
2023-02-06T18:59:27.667Z,1.39
2023-02-06T19:04:24.654Z,1.32
2023-02-06T19:09:23.172Z,1.37
2023-02-06T19:14:18.791Z,1.20
2023-02-06T19:19:13.544Z,1.18
2023-02-06T19:39:37.917Z,0.67
2023-02-06T19:49:39.022Z,0.51
2023-02-06T19:54:32.005Z,0.48
2023-02-06T19:59:28.781Z,0.52
2023-02-06T20:19:44.556Z,0.32
2023-02-06T20:29:43.656Z,0.32
2023-02-06T20:34:40.041Z,0.48
2023-02-06T20:39:32.582Z,0.48
2023-02-06T20:44:26.391Z,0.27
2023-02-06T20:54:32.810Z,0.24
2023-02-06T20:59:26.066Z,0.26
2023-02-06T21:04:20.362Z,0.22
2023-02-06T21:09:16.098Z,0.20
2023-02-06T21:24:27.967Z,0.10
2023-02-06T21:29:23.326Z,0.11
2023-02-06T21:34:23.550Z,0.13
2023-02-06T21:39:25.097Z,0.16
2023-02-06T21:49:23.731Z,0.18
2023-02-06T21:54:17.827Z,0.12
2023-02-06T22:09:24.043Z,-0.08
2023-02-06T22:14:19.020Z,-0.20
2023-02-06T22:19:11.417Z,-0.25
2023-02-06T22:29:16.949Z,-0.39
2023-02-06T22:39:22.067Z,-0.37
2023-02-06T22:49:25.368Z,-0.46
2023-02-06T22:54:17.759Z,-0.49
2023-02-06T22:59:25.893Z,-0.54
2023-02-06T23:04:26.952Z,-0.59
2023-02-06T23:14:35.298Z,-0.70
2023-02-06T23:19:31.572Z,-0.72
2023-02-06T23:24:25.269Z,-0.77
2023-02-06T23:29:23.248Z,-0.80
2023-02-06T23:34:19.105Z,-0.79
2023-02-06T23:39:12.083Z,-0.78
2023-02-06T23:44:08.775Z,-0.78
2023-02-06T23:49:02.768Z,-0.80
2023-02-06T23:53:54.989Z,-0.81
2023-02-06T23:58:48.498Z,-0.82
